Weather at Cleve Airport

Public forecast

Using degrees Celsius for public forecast. Weather courtesy of forecast.io.

Closest aviation weather report (METAR) to Cleve Airport

Closest report is Whyalla Airport, 63.9 nm (118.4 km) NE. Retrieved 2021/06/15 15:00 UTC (33 minutes ago):

YWHA 151500Z AUTO 34012KT 9999 // NCD 09/08 Q1010

Closest aviation forecast (TAF) to Cleve Airport

Forecast is more than 12 hours old.

Closest forecast is Whyalla Airport, 63.9 nm (118.4 km) NE. Retrieved 2018/11/15 18:03 UTC (3 years ago):

TAF YWHA 151701Z 1518/1608 VRB05KT CAVOK FM152300 18012KT CAVOK FM160200 18018KT CAVOK